Disclaimer

Please do not use the information listed here in-flight or in-navigation, as they are not provided to us by the airports but are provided by volunteers, so they might be outdated.

Search


Regions


Airport information page

Radio informations:
INFO - 123.4 MHz

Airport informations:
Latitude: 70° 36' 01.00" N
Longitude: 029° 41' 33.00" E
Elevation: 490 feet - 149 meters
Operating hours: 24 hour operations
Operating agency: Civil government, landing fees and diplomatic clearance may be required
Timezone: UTC+1(+2DT) - Last Sunday in March to last Sunday in October
Fuel: Jet A1, without icing nhibitor.

Runway information:
03/21 - 3281 x 98 feet< - >1000 x 30 meters

Recent METARs:
ENBS 221920Z VRB03KT 1500 SN VV007 M07/M08 Q1004
ENBS 221950Z VRB03KT 7000 -SN FEW010 BKN023 M07/M08 Q1004
ENBS 221950Z VRB03KT 7000 -SN FEW010 BKN023 M07/M08 Q1004

Airport on the map: